Time;durP1;ratioP1;P1;durP2;ratioP2;P2;SDS_P1;SDS_P2;PMS_P1;PMS_P2;Temp;Humidity;BMP_temperature;BMP_pressure;BME280_temperature;BME280_humidity;BME280_pressure;Samples;Min_cycle;Max_cycle;Signal;HPM_P1;HPM_P2
2024/01/29 00:02:21;;;;;;;;;;;;;;;;;;8432022;28;19952;-82
2024/01/29 00:06:22;;;;;;;;;;;;;;;;;;8431612;28;20380;-82
2024/01/29 00:10:25;;;;;;;;;;;;;;;;;;8431718;28;19927;-82
2024/01/29 00:14:29;;;;;;;;;;;;;;;;;;8431731;28;20015;-82
2024/01/29 00:18:30;;;;;;;;;;;;;;;;;;8431462;28;19927;-82
2024/01/29 00:22:32;;;;;;;;;;;;;;;;;;8431144;28;19927;-82
2024/01/29 00:26:34;;;;;;;;;;;;;;;;;;8431369;28;19955;-82
2024/01/29 00:30:37;;;;;;;;;;;;;;;;;;8431203;28;19920;-82
2024/01/29 00:34:39;;;;;;;;;;;;;;;;;;8431264;28;19969;-82
2024/01/29 00:38:41;;;;;;;;;;;;;;;;;;8431127;28;19935;-81
2024/01/29 00:42:43;;;;;;;;;;;;;;;;;;8431004;28;19927;-81
2024/01/29 00:47:03;;;;;;;;;;;;;;;;;;8430831;28;20550;-81
2024/01/29 00:51:05;;;;;;;;;;;;;;;;;;8430962;28;19920;-82
2024/01/29 00:55:07;;;;;;;;;;;;;;;;;;8430702;28;19919;-82
2024/01/29 00:59:09;;;;;;;;;;;;;;;;;;8430549;28;20002;-82
2024/01/29 01:03:12;;;;;;;;;;;;;;;;;;8430630;28;20018;-82
2024/01/29 01:07:15;;;;;;;;;;;;;;;;;;8430697;28;19920;-83
2024/01/29 01:11:16;;;;;;;;;;;;;;;;;;8430738;28;20022;-82
2024/01/29 01:15:18;;;;;;;;;;;;;;;;;;8430479;28;19920;-82
2024/01/29 01:19:22;;;;;;;;;;;;;;;;;;8430322;28;20455;-82
2024/01/29 01:23:23;;;;;;;;;;;;;;;;;;8434568;28;19928;-82
2024/01/29 01:27:25;;;;;;;;;;;;;;;;;;8436924;28;19920;-82
2024/01/29 01:31:27;;;;;;;;;;;;;;;;;;8436898;28;19927;-82
2024/01/29 01:35:30;;;;;;;;;;;;;;;;;;8436714;28;19920;-82
2024/01/29 01:39:32;;;;;;;;;;;;;;;;;;8436495;28;19920;-82
2024/01/29 01:43:34;;;;;;;;;;;;;;;;;;8436732;28;20299;-82
2024/01/29 01:47:36;;;;;;;;;;;;;;;;;;8436545;28;20366;-82
2024/01/29 01:51:40;;;;;;;;;;;;;;;;;;8436370;28;19920;-82
2024/01/29 01:55:42;;;;;;;;;;;;;;;;;;8402645;28;19928;-82
2024/01/29 01:59:44;;;;;;;;;;;;;;;;;;8409231;28;20050;-82
2024/01/29 02:03:46;;;;;;;;;;;;;;;;;;8435635;28;20388;-82
2024/01/29 02:08:19;;;;;;;;;;;;;;;;;;8436025;28;20372;-82
2024/01/29 02:12:23;;;;;;;;;;;;;;;;;;8435857;28;19920;-82
2024/01/29 02:16:25;;;;;;;;;;;;;;;;;;8435818;28;20023;-82
2024/01/29 02:20:27;;;;;;;;;;;;;;;;;;8435114;28;19920;-80
2024/01/29 02:24:30;;;;;;;;;;;;;;;;;;8435112;28;19966;-80
2024/01/29 02:28:31;;;;;;;;;;;;;;;;;;8435060;28;19973;-80
2024/01/29 02:32:34;;;;;;;;;;;;;;;;;;8434055;28;19920;-80
2024/01/29 02:36:54;;;;;;;;;;;;;;;;;;8434451;28;19924;-80
2024/01/29 02:40:57;;;;;;;;;;;;;;;;;;8434499;28;20467;-80
2024/01/29 02:44:59;;;;;;;;;;;;;;;;;;8434355;28;19920;-80
2024/01/29 02:49:01;;;;;;;;;;;;;;;;;;8434192;28;19920;-80
2024/01/29 02:53:03;;;;;;;;;;;;;;;;;;8434178;28;20448;-81
2024/01/29 02:57:06;;;;;;;;;;;;;;;;;;8434579;28;19938;-80
2024/01/29 03:01:09;;;;;;;;;;;;;;;;;;8433406;28;19923;-80
2024/01/29 03:05:11;;;;;;;;;;;;;;;;;;8433920;28;19920;-81
2024/01/29 03:09:43;;;;;;;;;;;;;;;;;;8433676;28;19924;-81
2024/01/29 03:13:47;;;;;;;;;;;;;;;;;;8433873;28;20030;-81
2024/01/29 03:17:49;;;;;;;;;;;;;;;;;;8433512;28;20300;-79
2024/01/29 03:21:51;;;;;;;;;;;;;;;;;;8433194;28;19920;-79
2024/01/29 03:25:53;;;;;;;;;;;;;;;;;;8433061;28;19926;-79
2024/01/29 03:29:56;;;;;;;;;;;;;;;;;;8433026;28;19926;-79
2024/01/29 03:33:58;;;;;;;;;;;;;;;;;;8433238;28;20337;-79
2024/01/29 03:38:02;;;;;;;;;;;;;;;;;;8432802;28;19920;-79
2024/01/29 03:42:04;;;;;;;;;;;;;;;;;;8432749;28;20369;-79
2024/01/29 03:46:07;;;;;;;;;;;;;;;;;;8431916;28;19920;-79
2024/01/29 03:50:09;;;;;;;;;;;;;;;;;;8432460;28;20380;-79
2024/01/29 03:54:11;;;;;;;;;;;;;;;;;;8432287;28;20363;-81
2024/01/29 03:58:13;;;;;;;;;;;;;;;;;;8432156;28;19926;-80
2024/01/29 04:02:17;;;;;;;;;;;;;;;;;;8430885;28;19924;-80
2024/01/29 04:06:35;;;;;;;;;;;;;;;;;;8431957;28;20009;-80
2024/01/29 04:10:36;;;;;;;;;;;;;;;;;;8432004;28;19961;-81
2024/01/29 04:14:38;;;;;;;;;;;;;;;;;;8431738;28;19919;-80
2024/01/29 04:18:41;;;;;;;;;;;;;;;;;;8431713;28;19974;-80
2024/01/29 04:22:43;;;;;;;;;;;;;;;;;;8431339;28;19993;-80
2024/01/29 04:26:45;;;;;;;;;;;;;;;;;;8431332;28;19931;-80
2024/01/29 04:30:47;;;;;;;;;;;;;;;;;;8431423;28;19920;-80
2024/01/29 04:34:50;;;;;;;;;;;;;;;;;;8431184;28;19920;-80
2024/01/29 04:38:52;;;;;;;;;;;;;;;;;;8430949;28;19939;-79
2024/01/29 04:42:54;;;;;;;;;;;;;;;;;;8430990;28;19920;-80
2024/01/29 04:46:56;;;;;;;;;;;;;;;;;;8429784;28;20273;-80
2024/01/29 04:50:59;;;;;;;;;;;;;;;;;;8430392;28;20006;-79
2024/01/29 04:55:01;;;;;;;;;;;;;;;;;;8430842;28;19927;-80
2024/01/29 04:59:03;;;;;;;;;;;;;;;;;;8436249;28;19924;-80
2024/01/29 05:03:04;;;;;;;;;;;;;;;;;;8437531;28;19950;-80
2024/01/29 05:07:08;;;;;;;;;;;;;;;;;;8437531;28;19920;-79
2024/01/29 05:11:10;;;;;;;;;;;;;;;;;;8437466;28;19926;-81
2024/01/29 05:15:12;;;;;;;;;;;;;;;;;;8437404;28;19926;-81
2024/01/29 05:19:14;;;;;;;;;;;;;;;;;;8437192;28;20018;-81
2024/01/29 05:23:17;;;;;;;;;;;;;;;;;;8437076;28;19928;-82
2024/01/29 05:27:19;;;;;;;;;;;;;;;;;;8436920;28;20868;-81
2024/01/29 05:31:21;;;;;;;;;;;;;;;;;;8436762;28;19920;-81
2024/01/29 05:35:23;;;;;;;;;;;;;;;;;;8436542;28;19920;-81
2024/01/29 05:39:26;;;;;;;;;;;;;;;;;;8435930;28;19920;-81
2024/01/29 05:43:28;;;;;;;;;;;;;;;;;;8434658;28;19920;-82
2024/01/29 05:47:30;;;;;;;;;;;;;;;;;;8435230;28;19919;-82
2024/01/29 05:51:42;;;;;;;;;;;;;;;;;;8435925;28;19920;-82
2024/01/29 05:55:45;;;;;;;;;;;;;;;;;;8435941;28;19920;-81
2024/01/29 05:59:47;;;;;;;;;;;;;;;;;;8435686;28;19954;-81
2024/01/29 06:03:49;;;;;;;;;;;;;;;;;;8435595;28;20038;-80
2024/01/29 06:07:52;;;;;;;;;;;;;;;;;;8435017;28;19959;-81
2024/01/29 06:11:55;;;;;;;;;;;;;;;;;;8435681;28;20340;-80
2024/01/29 06:15:58;;;;;;;;;;;;;;;;;;8435369;28;19931;-81
2024/01/29 06:19:59;;;;;;;;;;;;;;;;;;8417083;28;19919;-81
2024/01/29 06:24:03;;;;;;;;;;;;;;;;;;8435066;28;20022;-80
2024/01/29 06:28:07;;;;;;;;;;;;;;;;;;8435324;28;19966;-80
2024/01/29 06:32:09;;;;;;;;;;;;;;;;;;8434837;28;19962;-81
2024/01/29 06:36:15;;;;;;;;;;;;;;;;;;8434851;28;20275;-81
2024/01/29 06:40:18;;;;;;;;;;;;;;;;;;8434654;28;20295;-81
2024/01/29 06:44:21;;;;;;;;;;;;;;;;;;8434328;28;19959;-81
2024/01/29 06:48:27;;;;;;;;;;;;;;;;;;8434382;28;19924;-81
2024/01/29 06:52:29;;;;;;;;;;;;;;;;;;8433929;28;19920;-81
2024/01/29 06:56:31;;;;;;;;;;;;;;;;;;8433745;28;20420;-81
2024/01/29 07:00:34;;;;;;;;;;;;;;;;;;8432426;28;19920;-81
2024/01/29 07:04:36;;;;;;;;;;;;;;;;;;8431571;28;19920;-81
2024/01/29 07:08:38;;;;;;;;;;;;;;;;;;8431054;28;20006;-81
2024/01/29 07:12:40;;;;;;;;;;;;;;;;;;8433332;28;19920;-81
2024/01/29 07:16:43;;;;;;;;;;;;;;;;;;8432150;28;19919;-82
2024/01/29 07:20:45;;;;;;;;;;;;;;;;;;8432027;28;20376;-82
2024/01/29 07:24:48;;;;;;;;;;;;;;;;;;8432012;28;19927;-83
2024/01/29 07:28:50;;;;;;;;;;;;;;;;;;8431856;28;19924;-84
2024/01/29 07:32:55;;;;;;;;;;;;;;;;;;8428628;28;20364;-83
2024/01/29 07:36:57;;;;;;;;;;;;;;;;;;8427711;28;19965;-82
2024/01/29 07:40:59;;;;;;;;;;;;;;;;;;8428048;28;20134;-82
2024/01/29 07:49:42;;;;;;;;;;;;;;;;;;8432351;28;19925;-83
2024/01/29 07:58:24;;;;;;;;;;;;;;;;;;8432572;28;19969;-83
2024/01/29 08:07:30;;;;;;;;;;;;;;;;;;8431907;28;19919;-83
2024/01/29 08:11:32;;;;;;;;;;;;;;;;;;8431784;28;20018;-84
2024/01/29 08:15:34;;;;;;;;;;;;;;;;;;8431894;28;19961;-84
2024/01/29 08:19:36;;;;;;;;;;;;;;;;;;8431440;28;20280;-84
2024/01/29 08:23:42;;;;;;;;;;;;;;;;;;8431233;28;19977;-85
2024/01/29 08:27:44;;;;;;;;;;;;;;;;;;8431409;28;19966;-84
2024/01/29 08:31:46;;;;;;;;;;;;;;;;;;8431284;28;19927;-84
2024/01/29 08:35:47;;;;;;;;;;;;;;;;;;8430778;28;19928;-84
2024/01/29 08:39:51;;;;;;;;;;;;;;;;;;8430671;28;19927;-84
2024/01/29 08:43:53;;;;;;;;;;;;;;;;;;8431096;28;19956;-84
2024/01/29 08:47:55;;;;;;;;;;;;;;;;;;8430869;28;20376;-82
2024/01/29 08:51:57;;;;;;;;;;;;;;;;;;8430933;28;20349;-82
2024/01/29 08:56:00;;;;;;;;;;;;;;;;;;8429963;28;19927;-82
2024/01/29 09:00:03;;;;;;;;;;;;;;;;;;8430376;28;19966;-84
2024/01/29 09:04:05;;;;;;;;;;;;;;;;;;8430570;28;20376;-84
2024/01/29 09:08:07;;;;;;;;;;;;;;;;;;8431113;28;20026;-83
2024/01/29 09:12:10;;;;;;;;;;;;;;;;;;8430603;28;19920;-83
2024/01/29 09:16:12;;;;;;;;;;;;;;;;;;8430511;28;20295;-83
2024/01/29 09:20:14;;;;;;;;;;;;;;;;;;8430481;28;19920;-81
2024/01/29 09:24:17;;;;;;;;;;;;;;;;;;8430213;28;20013;-82
2024/01/29 09:28:20;;;;;;;;;;;;;;;;;;8430751;28;19920;-84
2024/01/29 09:32:22;;;;;;;;;;;;;;;;;;8429905;28;20273;-86
2024/01/29 09:36:24;;;;;;;;;;;;;;;;;;8430147;28;19927;-84
2024/01/29 09:40:26;;;;;;;;;;;;;;;;;;8430196;28;19920;-84
2024/01/29 09:44:29;;;;;;;;;;;;;;;;;;8433956;28;20046;-86
2024/01/29 09:48:32;;;;;;;;;;;;;;;;;;8418267;28;19920;-84
2024/01/29 09:52:37;;;;;;;;;;;;;;;;;;8434726;28;19931;-84
2024/01/29 09:57:06;;;;;;;;;;;;;;;;;;8435659;28;20368;-84
2024/01/29 10:01:38;;;;;;;;;;;;;;;;;;8435172;28;19920;-83
2024/01/29 10:05:42;;;;;;;;;;;;;;;;;;8434671;28;19920;-82
2024/01/29 10:09:43;;;;;;;;;;;;;;;;;;8434937;28;19920;-82
2024/01/29 10:13:46;;;;;;;;;;;;;;;;;;8434069;28;19927;-82
2024/01/29 10:17:49;;;;;;;;;;;;;;;;;;8433077;28;19920;-85
2024/01/29 10:21:51;;;;;;;;;;;;;;;;;;8430282;28;19926;-85
2024/01/29 10:25:55;;;;;;;;;;;;;;;;;;8432362;28;20014;-85
2024/01/29 10:29:57;;;;;;;;;;;;;;;;;;8433682;28;19926;-82
2024/01/29 10:34:05;;;;;;;;;;;;;;;;;;8433858;28;19928;-82
2024/01/29 10:38:14;;;;;;;;;;;;;;;;;;8436932;28;20414;-85
2024/01/29 10:42:17;;;;;;;;;;;;;;;;;;8433567;28;19936;-83
2024/01/29 10:46:20;;;;;;;;;;;;;;;;;;8433567;28;19924;-83
2024/01/29 10:50:22;;;;;;;;;;;;;;;;;;8432741;28;19920;-82
2024/01/29 10:54:26;;;;;;;;;;;;;;;;;;8431962;28;20370;-82
2024/01/29 10:58:28;;;;;;;;;;;;;;;;;;8433174;28;19928;-82
2024/01/29 11:02:30;;;;;;;;;;;;;;;;;;8412710;28;19920;-82
2024/01/29 11:06:36;;;;;;;;;;;;;;;;;;8430074;28;19927;-83
2024/01/29 11:10:40;;;;;;;;;;;;;;;;;;8431335;28;19996;-83
2024/01/29 11:14:47;;;;;;;;;;;;;;;;;;8428983;28;19970;-82
2024/01/29 11:19:19;;;;;;;;;;;;;;;;;;8430757;28;19924;-83
2024/01/29 11:23:22;;;;;;;;;;;;;;;;;;8296073;28;19922;-84
2024/01/29 11:27:30;;;;;;;;;;;;;;;;;;8296263;28;20325;-85
2024/01/29 11:31:41;;;;;;;;;;;;;;;;;;8295928;28;19921;-85
2024/01/29 11:35:45;;;;;;;;;;;;;;;;;;8295363;28;19921;-84
2024/01/29 11:39:47;;;;;;;;;;;;;;;;;;8277472;28;19925;-85
2024/01/29 11:43:52;;;;;;;;;;;;;;;;;;8293563;28;19921;-85
2024/01/29 11:47:54;;;;;;;;;;;;;;;;;;8294163;28;20303;-85
2024/01/29 11:51:56;;;;;;;;;;;;;;;;;;8319892;28;19920;-85
2024/01/29 11:55:58;;;;;;;;;;;;;;;;;;8431023;28;19928;-85
2024/01/29 12:00:02;;;;;;;;;;;;;;;;;;8430728;28;19924;-85
2024/01/29 12:04:04;;;;;;;;;;;;;;;;;;8429096;28;19920;-85
2024/01/29 12:08:12;;;;;;;;;;;;;;;;;;8430496;28;19963;-85
2024/01/29 12:12:14;;;;;;;;;;;;;;;;;;8425254;28;19923;-85
2024/01/29 12:16:17;;;;;;;;;;;;;;;;;;8425618;28;19930;-85
2024/01/29 12:20:19;;;;;;;;;;;;;;;;;;8427708;28;19924;-85
2024/01/29 12:24:31;;;;;;;;;;;;;;;;;;8430576;28;19927;-85
2024/01/29 12:28:33;;;;;;;;;;;;;;;;;;8430623;28;19926;-85
2024/01/29 12:32:45;;;;;;;;;;;;;;;;;;8430247;28;19924;-86
2024/01/29 12:36:50;;;;;;;;;;;;;;;;;;8430896;28;19927;-86
2024/01/29 12:40:55;;;;;;;;;;;;;;;;;;8430162;28;19926;-85
2024/01/29 12:45:08;;;;;;;;;;;;;;;;;;8430115;28;19920;-84
2024/01/29 12:49:12;;;;;;;;;;;;;;;;;;8430151;28;20599;-85
2024/01/29 12:53:15;;;;;;;;;;;;;;;;;;8429781;28;20328;-85
2024/01/29 12:57:17;;;;;;;;;;;;;;;;;;8429791;28;19927;-86
2024/01/29 13:01:18;;;;;;;;;;;;;;;;;;8430311;28;19924;-85
2024/01/29 13:05:22;;;;;;;;;;;;;;;;;;8429906;28;19963;-85
2024/01/29 13:09:24;;;;;;;;;;;;;;;;;;8427449;28;19928;-84
2024/01/29 13:13:26;;;;;;;;;;;;;;;;;;8427049;28;20342;-84
2024/01/29 13:17:29;;;;;;;;;;;;;;;;;;8430565;28;19920;-83
2024/01/29 13:21:33;;;;;;;;;;;;;;;;;;8436314;28;19920;-84
2024/01/29 13:25:35;;;;;;;;;;;;;;;;;;8436177;28;19924;-85
2024/01/29 13:29:37;;;;;;;;;;;;;;;;;;8417901;28;19924;-84
2024/01/29 13:33:40;;;;;;;;;;;;;;;;;;8435712;28;20372;-84
2024/01/29 13:37:43;;;;;;;;;;;;;;;;;;8435951;28;19927;-84
2024/01/29 13:41:45;;;;;;;;;;;;;;;;;;8436125;28;19920;-84
2024/01/29 13:45:47;;;;;;;;;;;;;;;;;;8435523;28;19997;-84
2024/01/29 13:49:49;;;;;;;;;;;;;;;;;;8435677;28;20006;-84
2024/01/29 13:53:52;;;;;;;;;;;;;;;;;;8433491;28;19970;-85
2024/01/29 13:57:54;;;;;;;;;;;;;;;;;;8434411;28;19928;-84
2024/01/29 14:01:56;;;;;;;;;;;;;;;;;;8434035;28;19968;-83
2024/01/29 14:05:58;;;;;;;;;;;;;;;;;;8434717;28;20015;-83
2024/01/29 14:10:02;;;;;;;;;;;;;;;;;;8434904;28;19963;-83
2024/01/29 14:14:07;;;;;;;;;;;;;;;;;;8416506;28;19924;-85
2024/01/29 14:18:08;;;;;;;;;;;;;;;;;;8433775;28;19954;-85
2024/01/29 14:22:10;;;;;;;;;;;;;;;;;;8434723;28;19924;-85
2024/01/29 14:26:14;;;;;;;;;;;;;;;;;;8434907;28;19920;-86
2024/01/29 14:30:16;;;;;;;;;;;;;;;;;;8435059;28;19920;-84
2024/01/29 14:39:15;;;;;;;;;;;;;;;;;;8434813;28;19928;-85
2024/01/29 14:43:18;;;;;;;;;;;;;;;;;;8434559;28;19926;-84
2024/01/29 14:47:20;;;;;;;;;;;;;;;;;;8434148;28;19966;-84
2024/01/29 14:51:24;;;;;;;;;;;;;;;;;;8434465;28;19920;-84
2024/01/29 14:55:25;;;;;;;;;;;;;;;;;;8433763;28;19920;-83
2024/01/29 14:59:29;;;;;;;;;;;;;;;;;;8433358;28;20022;-84
2024/01/29 15:08:16;;;;;;;;;;;;;;;;;;8433058;28;19920;-84
2024/01/29 15:12:18;;;;;;;;;;;;;;;;;;8432861;28;19920;-83
2024/01/29 15:16:21;;;;;;;;;;;;;;;;;;8432435;28;19924;-83
2024/01/29 15:20:23;;;;;;;;;;;;;;;;;;8432652;28;20006;-83
2024/01/29 15:24:25;;;;;;;;;;;;;;;;;;8432005;28;20035;-83
2024/01/29 15:28:26;;;;;;;;;;;;;;;;;;8414434;28;20736;-83
2024/01/29 15:32:30;;;;;;;;;;;;;;;;;;8431641;28;19924;-84
2024/01/29 15:36:31;;;;;;;;;;;;;;;;;;8432366;28;19920;-83
2024/01/29 15:40:33;;;;;;;;;;;;;;;;;;8431610;28;19924;-83
2024/01/29 15:44:35;;;;;;;;;;;;;;;;;;8431779;28;20030;-84
2024/01/29 15:48:38;;;;;;;;;;;;;;;;;;8430851;28;19927;-83
2024/01/29 15:52:40;;;;;;;;;;;;;;;;;;8430231;28;19924;-83
2024/01/29 15:56:42;;;;;;;;;;;;;;;;;;8432325;28;20323;-83
2024/01/29 16:00:44;;;;;;;;;;;;;;;;;;8432339;28;19927;-83
2024/01/29 16:04:54;;;;;;;;;;;;;;;;;;8431988;28;19936;-83
2024/01/29 16:08:57;;;;;;;;;;;;;;;;;;8431329;28;20006;-82
2024/01/29 16:13:00;;;;;;;;;;;;;;;;;;8431689;28;19920;-83
2024/01/29 16:17:03;;;;;;;;;;;;;;;;;;8431252;28;20384;-82
2024/01/29 16:21:06;;;;;;;;;;;;;;;;;;8430677;28;19920;-83
2024/01/29 16:25:08;;;;;;;;;;;;;;;;;;8431479;28;19926;-82
2024/01/29 16:29:10;;;;;;;;;;;;;;;;;;8431834;28;19924;-82
2024/01/29 16:33:12;;;;;;;;;;;;;;;;;;8431515;28;20019;-82
2024/01/29 16:37:15;;;;;;;;;;;;;;;;;;8431789;28;20019;-82
2024/01/29 16:41:21;;;;;;;;;;;;;;;;;;8432032;28;20081;-81
2024/01/29 16:45:23;;;;;;;;;;;;;;;;;;8412595;28;19920;-84
2024/01/29 16:49:25;;;;;;;;;;;;;;;;;;8431069;28;19959;-83
2024/01/29 16:53:55;;;;;;;;;;;;;;;;;;8430158;28;20273;-83
2024/01/29 16:57:58;;;;;;;;;;;;;;;;;;8430989;28;19920;-83
2024/01/29 17:02:28;;;;;;;;;;;;;;;;;;8430509;28;20358;-83
2024/01/29 17:06:30;;;;;;;;;;;;;;;;;;8430236;28;20031;-83
2024/01/29 17:10:33;;;;;;;;;;;;;;;;;;8430601;28;19950;-83
2024/01/29 17:14:37;;;;;;;;;;;;;;;;;;8430971;28;19966;-83
2024/01/29 17:18:39;;;;;;;;;;;;;;;;;;8430606;28;19970;-84
2024/01/29 17:22:40;;;;;;;;;;;;;;;;;;8429233;28;20018;-84
2024/01/29 17:26:42;;;;;;;;;;;;;;;;;;8430269;28;20273;-83
2024/01/29 17:30:45;;;;;;;;;;;;;;;;;;8429528;28;20352;-84
2024/01/29 17:34:47;;;;;;;;;;;;;;;;;;8430183;28;19920;-83
2024/01/29 17:38:49;;;;;;;;;;;;;;;;;;8430218;28;19965;-83
2024/01/29 17:42:50;;;;;;;;;;;;;;;;;;8429927;28;19924;-82
2024/01/29 17:46:54;;;;;;;;;;;;;;;;;;8429951;28;20375;-83
2024/01/29 17:50:56;;;;;;;;;;;;;;;;;;8429952;28;19966;-82
2024/01/29 17:54:58;;;;;;;;;;;;;;;;;;8429797;28;20011;-87
2024/01/29 17:59:00;;;;;;;;;;;;;;;;;;8429865;28;19919;-82
2024/01/29 18:03:03;;;;;;;;;;;;;;;;;;8429513;28;20009;-82
2024/01/29 18:07:05;;;;;;;;;;;;;;;;;;8435669;28;20014;-81
2024/01/29 18:11:28;;;;;;;;;;;;;;;;;;8434829;28;19920;-81
2024/01/29 18:15:30;;;;;;;;;;;;;;;;;;8435665;28;20038;-82
2024/01/29 18:19:33;;;;;;;;;;;;;;;;;;8432995;28;19920;-83
2024/01/29 18:23:35;;;;;;;;;;;;;;;;;;8434226;28;20410;-82
2024/01/29 18:27:37;;;;;;;;;;;;;;;;;;8434402;28;19927;-81
2024/01/29 18:31:39;;;;;;;;;;;;;;;;;;8434612;28;20391;-82
2024/01/29 18:35:42;;;;;;;;;;;;;;;;;;8434492;28;19928;-81
2024/01/29 18:39:45;;;;;;;;;;;;;;;;;;8434564;28;20406;-84
2024/01/29 18:43:47;;;;;;;;;;;;;;;;;;8434334;28;19923;-81
2024/01/29 18:47:52;;;;;;;;;;;;;;;;;;8434546;28;19920;-82
2024/01/29 18:52:01;;;;;;;;;;;;;;;;;;8433344;28;19955;-82
2024/01/29 18:56:05;;;;;;;;;;;;;;;;;;8433553;28;19931;-82
2024/01/29 19:00:07;;;;;;;;;;;;;;;;;;8432743;28;19920;-81
2024/01/29 19:04:09;;;;;;;;;;;;;;;;;;8433522;28;19989;-81
2024/01/29 19:08:12;;;;;;;;;;;;;;;;;;8433797;28;19946;-81
2024/01/29 19:12:14;;;;;;;;;;;;;;;;;;8434690;28;19924;-80
2024/01/29 19:16:16;;;;;;;;;;;;;;;;;;8432565;28;19920;-81
2024/01/29 19:20:19;;;;;;;;;;;;;;;;;;8433436;28;20026;-81
2024/01/29 19:24:22;;;;;;;;;;;;;;;;;;8433135;28;19980;-81
2024/01/29 19:28:26;;;;;;;;;;;;;;;;;;8432993;28;19920;-81
2024/01/29 19:32:28;;;;;;;;;;;;;;;;;;8432969;28;20411;-81
2024/01/29 19:36:31;;;;;;;;;;;;;;;;;;8433084;28;20360;-82
2024/01/29 19:40:34;;;;;;;;;;;;;;;;;;8433122;28;20291;-80
2024/01/29 19:44:50;;;;;;;;;;;;;;;;;;8432529;28;19920;-81
2024/01/29 19:48:52;;;;;;;;;;;;;;;;;;8432269;28;19919;-81
2024/01/29 19:52:54;;;;;;;;;;;;;;;;;;8432450;28;19927;-81
2024/01/29 19:56:57;;;;;;;;;;;;;;;;;;8432014;28;19920;-81
2024/01/29 20:01:02;;;;;;;;;;;;;;;;;;8432011;28;19920;-81
2024/01/29 20:05:04;;;;;;;;;;;;;;;;;;8431904;28;19990;-81
2024/01/29 20:09:07;;;;;;;;;;;;;;;;;;8431931;28;19919;-79
2024/01/29 20:13:10;;;;;;;;;;;;;;;;;;8432110;28;19920;-79
2024/01/29 20:17:12;;;;;;;;;;;;;;;;;;8414008;28;20372;-80
2024/01/29 20:21:14;;;;;;;;;;;;;;;;;;8431657;28;19920;-80
2024/01/29 20:25:18;;;;;;;;;;;;;;;;;;8413628;28;19927;-80
2024/01/29 20:29:21;;;;;;;;;;;;;;;;;;8430234;28;20019;-80
2024/01/29 20:33:24;;;;;;;;;;;;;;;;;;8431075;28;19920;-80
2024/01/29 20:37:26;;;;;;;;;;;;;;;;;;8430961;28;19920;-80
2024/01/29 20:41:41;;;;;;;;;;;;;;;;;;8430982;28;19927;-80
2024/01/29 20:45:44;;;;;;;;;;;;;;;;;;8430905;28;19920;-80
2024/01/29 20:49:46;;;;;;;;;;;;;;;;;;8429793;28;19935;-80
2024/01/29 20:59:01;;;;;;;;;;;;;;;;;;8430917;28;20368;-81
2024/01/29 21:03:06;;;;;;;;;;;;;;;;;;8430617;28;19920;-81
2024/01/29 21:07:08;;;;;;;;;;;;;;;;;;8430614;28;19920;-80
2024/01/29 21:11:11;;;;;;;;;;;;;;;;;;8430665;28;19920;-80
2024/01/29 21:15:12;;;;;;;;;;;;;;;;;;8430646;28;19924;-80
2024/01/29 21:19:16;;;;;;;;;;;;;;;;;;8430299;28;20027;-80
2024/01/29 21:23:18;;;;;;;;;;;;;;;;;;8430682;28;19959;-80
2024/01/29 21:27:19;;;;;;;;;;;;;;;;;;8430350;28;19920;-80
2024/01/29 21:31:36;;;;;;;;;;;;;;;;;;8430602;28;20011;-79
2024/01/29 21:35:40;;;;;;;;;;;;;;;;;;8430856;28;19962;-81
2024/01/29 21:39:41;;;;;;;;;;;;;;;;;;8433122;28;19920;-81
2024/01/29 21:43:43;;;;;;;;;;;;;;;;;;8418354;28;19956;-80
2024/01/29 21:47:45;;;;;;;;;;;;;;;;;;8436051;28;20339;-80
2024/01/29 21:51:48;;;;;;;;;;;;;;;;;;8436369;28;19920;-79
2024/01/29 21:55:50;;;;;;;;;;;;;;;;;;8436315;28;20300;-79
2024/01/29 21:59:55;;;;;;;;;;;;;;;;;;8436385;28;20344;-80
2024/01/29 22:03:57;;;;;;;;;;;;;;;;;;8436260;28;20023;-79
2024/01/29 22:08:00;;;;;;;;;;;;;;;;;;8435833;28;20453;-79
2024/01/29 22:12:02;;;;;;;;;;;;;;;;;;8435811;28;20379;-80
2024/01/29 22:16:04;;;;;;;;;;;;;;;;;;8435803;28;19973;-80
2024/01/29 22:20:06;;;;;;;;;;;;;;;;;;8435734;28;19942;-80
2024/01/29 22:24:09;;;;;;;;;;;;;;;;;;8435355;28;19926;-80
2024/01/29 22:28:11;;;;;;;;;;;;;;;;;;8435134;28;20384;-80
2024/01/29 22:32:13;;;;;;;;;;;;;;;;;;8435337;28;19973;-80
2024/01/29 22:36:18;;;;;;;;;;;;;;;;;;8434966;28;20010;-80
2024/01/29 22:40:21;;;;;;;;;;;;;;;;;;8434823;28;19920;-80
2024/01/29 22:44:23;;;;;;;;;;;;;;;;;;8434747;28;20296;-80
2024/01/29 22:48:25;;;;;;;;;;;;;;;;;;8434459;28;20392;-79
2024/01/29 22:52:27;;;;;;;;;;;;;;;;;;8434712;28;19926;-80
2024/01/29 22:56:30;;;;;;;;;;;;;;;;;;8434514;28;19959;-80
2024/01/29 23:00:33;;;;;;;;;;;;;;;;;;8434398;28;19920;-80
2024/01/29 23:04:35;;;;;;;;;;;;;;;;;;8434328;28;19920;-80
2024/01/29 23:08:37;;;;;;;;;;;;;;;;;;8434579;28;19924;-80
2024/01/29 23:12:40;;;;;;;;;;;;;;;;;;8434034;28;19970;-80
2024/01/29 23:16:42;;;;;;;;;;;;;;;;;;8434172;28;19927;-80
2024/01/29 23:20:44;;;;;;;;;;;;;;;;;;8433945;28;19924;-80
2024/01/29 23:24:46;;;;;;;;;;;;;;;;;;8433434;28;19923;-80
2024/01/29 23:28:49;;;;;;;;;;;;;;;;;;8433899;28;19920;-79
2024/01/29 23:32:51;;;;;;;;;;;;;;;;;;8433205;28;19924;-79
2024/01/29 23:36:53;;;;;;;;;;;;;;;;;;8433051;28;19926;-79
2024/01/29 23:40:55;;;;;;;;;;;;;;;;;;8446547;28;19924;-80
2024/01/29 23:44:58;;;;;;;;;;;;;;;;;;8449511;28;20442;-80
2024/01/29 23:49:00;;;;;;;;;;;;;;;;;;8452811;28;19920;-80
2024/01/29 23:53:02;;;;;;;;;;;;;;;;;;8435644;28;20010;-80
2024/01/29 23:57:04;;;;;;;;;;;;;;;;;;8455304;28;19919;-80
